createdAt,value
2017-12-04T00:00:02.795Z,-0.17
2017-12-04T00:01:12.245Z,-0.02
2017-12-04T00:02:22.236Z,0.06
2017-12-04T00:03:32.220Z,-0.05
2017-12-04T00:04:42.201Z,0.05
2017-12-04T00:05:51.914Z,0.15
2017-12-04T00:07:01.909Z,0.12
2017-12-04T00:08:11.106Z,0.24
2017-12-04T00:09:21.090Z,0.3
2017-12-04T00:10:31.066Z,0.31
2017-12-04T00:11:41.051Z,0.3
2017-12-04T00:12:51.034Z,0.33
2017-12-04T00:14:01.022Z,0.33
2017-12-04T00:15:10.747Z,0.31
2017-12-04T00:16:20.197Z,0.33
2017-12-04T00:17:29.915Z,0.42
2017-12-04T00:18:39.373Z,0.44
2017-12-04T00:19:49.360Z,0.36
2017-12-04T00:20:59.081Z,0.34
2017-12-04T00:22:08.806Z,0.27
2017-12-04T00:23:18.793Z,0.11
2017-12-04T00:24:28.511Z,0.2
2017-12-04T00:25:38.229Z,0.15
2017-12-04T00:26:48.210Z,0
2017-12-04T00:27:58.196Z,-0.05
2017-12-04T00:29:08.185Z,-0.05
2017-12-04T00:30:17.646Z,0.11
2017-12-04T00:31:27.627Z,0.12
2017-12-04T00:32:37.604Z,0.31
2017-12-04T00:33:47.590Z,0.4
2017-12-04T00:34:57.576Z,0.49
2017-12-04T00:36:07.292Z,0.52
2017-12-04T00:37:17.017Z,0.66
2017-12-04T00:38:26.733Z,0.56
2017-12-04T00:39:36.716Z,0.66
2017-12-04T00:40:46.736Z,0.66
2017-12-04T00:41:56.412Z,0.76
2017-12-04T00:43:06.147Z,0.77
2017-12-04T00:44:16.129Z,0.82
2017-12-04T00:45:26.111Z,0.85
2017-12-04T00:46:36.090Z,0.82
2017-12-04T00:47:45.804Z,0.73
2017-12-04T00:48:55.786Z,0.7
2017-12-04T00:50:05.773Z,0.64
2017-12-04T00:51:15.489Z,0.52
2017-12-04T00:52:25.474Z,0.45
2017-12-04T00:53:35.455Z,0.36
2017-12-04T00:54:45.452Z,0.31
2017-12-04T00:55:55.438Z,0.26
2017-12-04T00:57:05.155Z,0.16
2017-12-04T00:58:14.870Z,0.13
2017-12-04T00:59:24.850Z,0.01
2017-12-04T01:00:34.572Z,-0.24
2017-12-04T01:01:44.297Z,-0.44
2017-12-04T01:02:54.281Z,-0.57
2017-12-04T01:04:03.996Z,-0.63
2017-12-04T01:05:13.455Z,-0.69
2017-12-04T01:06:23.168Z,-0.87
2017-12-04T01:07:32.882Z,-0.99
2017-12-04T01:08:42.913Z,-1.01
2017-12-04T01:09:52.916Z,-1
2017-12-04T01:11:02.642Z,-1.19
2017-12-04T01:12:12.096Z,-1.21
2017-12-04T01:13:22.082Z,-1.27
2017-12-04T01:14:32.073Z,-1.36
2017-12-04T01:15:41.792Z,-1.32
2017-12-04T01:16:51.771Z,-1.45
2017-12-04T01:18:01.817Z,-1.43
2017-12-04T01:19:11.537Z,-1.46
2017-12-04T01:20:21.524Z,-1.56
2017-12-04T01:21:31.503Z,-1.56
2017-12-04T01:22:41.489Z,-1.6
2017-12-04T01:23:51.470Z,-1.63
2017-12-04T01:25:01.453Z,-1.76
2017-12-04T01:26:11.168Z,-1.75
2017-12-04T01:27:21.154Z,-1.82
2017-12-04T01:28:31.145Z,-1.86
2017-12-04T01:29:41.133Z,-1.9
2017-12-04T01:30:51.122Z,-1.89
2017-12-04T01:32:01.103Z,-1.87
2017-12-04T01:33:11.096Z,-1.89
2017-12-04T01:34:21.083Z,-1.9
2017-12-04T01:35:31.070Z,-1.9
2017-12-04T01:36:41.054Z,-1.9
2017-12-04T01:37:51.033Z,-1.89
2017-12-04T01:39:01.019Z,-1.84
2017-12-04T01:40:10.471Z,-1.92
2017-12-04T01:41:20.510Z,-1.86
2017-12-04T01:42:30.223Z,-1.87
2017-12-04T01:43:40.209Z,-1.82
2017-12-04T01:44:50.195Z,-1.87
2017-12-04T01:46:00.174Z,-1.74
2017-12-04T01:47:09.892Z,-1.84
2017-12-04T01:48:19.887Z,-1.76
2017-12-04T01:49:29.600Z,-1.64
2017-12-04T01:50:39.323Z,-1.64
2017-12-04T01:51:49.043Z,-1.66
2017-12-04T01:52:59.024Z,-1.61
2017-12-04T01:54:08.741Z,-1.6
2017-12-04T01:55:18.732Z,-1.61
2017-12-04T01:56:28.185Z,-1.64
2017-12-04T01:57:38.171Z,-1.66
2017-12-04T01:58:48.166Z,-1.64
2017-12-04T01:59:57.886Z,-1.51
2017-12-04T02:01:07.874Z,-1.45
2017-12-04T02:02:17.599Z,-1.46
2017-12-04T02:03:27.317Z,-1.43
2017-12-04T02:04:37.297Z,-1.42
2017-12-04T02:05:47.404Z,-1.38
2017-12-04T02:06:57.387Z,-1.18
2017-12-04T02:08:07.107Z,-1.22
2017-12-04T02:09:16.822Z,-1.11
2017-12-04T02:10:26.540Z,-1.14
2017-12-04T02:11:36.260Z,-1.06
2017-12-04T02:12:45.974Z,-1.03
2017-12-04T02:13:55.692Z,-0.94
2017-12-04T02:15:05.687Z,-1
2017-12-04T02:16:15.672Z,-0.81
2017-12-04T02:17:25.716Z,-0.89
2017-12-04T02:18:35.698Z,-0.7
2017-12-04T02:19:45.681Z,-0.75
2017-12-04T02:20:55.661Z,-0.7
2017-12-04T02:22:05.392Z,-0.67
2017-12-04T02:23:14.847Z,-0.59
2017-12-04T02:24:24.825Z,-0.69
2017-12-04T02:25:34.839Z,-0.62
2017-12-04T02:26:44.821Z,-0.69
2017-12-04T02:27:54.802Z,-0.69
2017-12-04T02:29:04.783Z,-0.66
2017-12-04T02:30:14.774Z,-0.69
2017-12-04T02:31:24.760Z,-0.78
2017-12-04T02:32:34.749Z,-0.72
2017-12-04T02:33:44.473Z,-0.7
2017-12-04T02:34:54.463Z,-0.72
2017-12-04T02:36:04.449Z,-0.72
2017-12-04T02:37:14.445Z,-0.75
2017-12-04T02:38:24.433Z,-0.77
2017-12-04T02:39:34.418Z,-0.74
2017-12-04T02:40:44.137Z,-0.87
2017-12-04T02:41:53.884Z,-0.91
2017-12-04T02:43:03.872Z,-0.85
2017-12-04T02:44:13.862Z,-0.82
2017-12-04T02:45:23.850Z,-0.87
2017-12-04T02:46:33.571Z,-0.96
2017-12-04T02:47:43.291Z,-0.99
2017-12-04T02:48:53.323Z,-1
2017-12-04T02:50:03.041Z,-0.96
2017-12-04T02:51:13.029Z,-1.03
2017-12-04T02:52:23.018Z,-1.03
2017-12-04T02:53:33.003Z,-1.04
2017-12-04T02:54:42.992Z,-1.03
2017-12-04T02:55:52.980Z,-1
2017-12-04T02:57:02.969Z,-0.97
2017-12-04T02:58:12.685Z,-0.97
2017-12-04T02:59:22.673Z,-0.94
2017-12-04T03:00:32.650Z,-0.93
2017-12-04T03:01:42.681Z,-0.85
2017-12-04T03:02:52.668Z,-0.93
2017-12-04T03:04:04.701Z,-0.97
2017-12-04T03:05:14.152Z,-1.01
2017-12-04T03:06:24.133Z,-0.99
2017-12-04T03:07:34.114Z,-1.04
2017-12-04T03:08:44.104Z,-1.06
2017-12-04T03:09:54.086Z,-1.07
2017-12-04T03:11:04.073Z,-1.06
2017-12-04T03:12:14.057Z,-1.15
2017-12-04T03:13:23.505Z,-1.11
2017-12-04T03:14:33.492Z,-1.14
2017-12-04T03:15:43.485Z,-1.06
2017-12-04T03:16:53.470Z,-1.14
2017-12-04T03:18:03.188Z,-1.07
2017-12-04T03:19:12.906Z,-1.14
2017-12-04T03:20:22.354Z,-1.19
2017-12-04T03:21:32.334Z,-1.17
2017-12-04T03:22:42.314Z,-1.15
2017-12-04T03:23:52.297Z,-1.18
2017-12-04T03:25:02.014Z,-1.27
2017-12-04T03:26:11.466Z,-1.22
2017-12-04T03:27:21.456Z,-1.17
2017-12-04T03:28:31.440Z,-1.32
2017-12-04T03:29:41.432Z,-1.24
2017-12-04T03:30:51.436Z,-1.38
2017-12-04T03:32:01.424Z,-1.4
2017-12-04T03:33:10.612Z,-1.29
2017-12-04T03:34:20.600Z,-1.4
2017-12-04T03:35:30.592Z,-1.39
2017-12-04T03:36:40.581Z,-1.33
2017-12-04T03:37:50.582Z,-1.27
2017-12-04T03:39:00.565Z,-1.32
2017-12-04T03:40:10.337Z,-1.3
2017-12-04T03:41:20.323Z,-1.32
2017-12-04T03:42:29.771Z,-1.17
2017-12-04T03:43:39.756Z,-1.29
2017-12-04T03:44:49.744Z,-1.29
2017-12-04T03:45:59.728Z,-1.32
2017-12-04T03:47:09.447Z,-1.3
2017-12-04T03:48:19.428Z,-1.29
2017-12-04T03:49:29.410Z,-1.42
2017-12-04T03:50:41.389Z,-1.54
2017-12-04T03:51:51.371Z,-1.51
2017-12-04T03:53:01.351Z,-1.64
2017-12-04T03:54:11.071Z,-1.71
2017-12-04T03:55:21.108Z,-1.72
2017-12-04T03:56:30.829Z,-1.82
2017-12-04T03:57:40.542Z,-1.84
2017-12-04T03:58:50.529Z,-1.86
2017-12-04T04:00:00.508Z,-1.97
2017-12-04T04:03:42.536Z,-1.92
2017-12-04T04:04:52.247Z,-1.87
2017-12-04T04:06:02.232Z,-1.9
2017-12-04T04:07:12.216Z,-1.89
2017-12-04T04:08:21.933Z,-1.99
2017-12-04T04:09:31.913Z,-1.93
2017-12-04T04:10:41.627Z,-1.9
2017-12-04T04:11:51.606Z,-1.82
2017-12-04T04:13:01.595Z,-1.9
2017-12-04T04:14:11.591Z,-2
2017-12-04T04:15:21.307Z,-2.07
2017-12-04T04:16:31.284Z,-2.04
2017-12-04T04:17:41.263Z,-2.17
2017-12-04T04:18:51.241Z,-2.18
2017-12-04T04:20:01.220Z,-2.15
2017-12-04T04:21:10.404Z,-2.17
2017-12-04T04:22:20.393Z,-2.25
2017-12-04T04:23:30.113Z,-2.29
2017-12-04T04:24:40.093Z,-2.28
2017-12-04T04:25:49.808Z,-2.44
2017-12-04T04:26:59.519Z,-2.45
2017-12-04T04:28:09.234Z,-2.45
2017-12-04T04:29:19.218Z,-2.5
2017-12-04T04:30:29.210Z,-2.45
2017-12-04T04:31:39.192Z,-2.51
2017-12-04T04:32:49.180Z,-2.54
2017-12-04T04:33:59.167Z,-2.54
2017-12-04T04:35:08.891Z,-2.57
2017-12-04T04:36:18.869Z,-2.5
2017-12-04T04:37:28.848Z,-2.51
2017-12-04T04:38:38.831Z,-2.45
2017-12-04T04:39:48.812Z,-2.34
2017-12-04T04:40:58.789Z,-2.37
2017-12-04T04:42:08.782Z,-2.25
2017-12-04T04:43:18.505Z,-2.04
2017-12-04T04:44:28.222Z,-2
2017-12-04T04:45:38.250Z,-1.97
2017-12-04T04:46:47.964Z,-2.05
2017-12-04T04:47:57.947Z,-2.05
2017-12-04T04:49:07.670Z,-1.94
2017-12-04T04:50:17.690Z,-1.92
2017-12-04T04:51:27.675Z,-1.84
2017-12-04T04:52:37.656Z,-1.82
2017-12-04T04:53:47.639Z,-1.9
2017-12-04T04:54:57.624Z,-1.82
2017-12-04T04:56:07.611Z,-1.97
2017-12-04T04:57:17.063Z,-1.78
2017-12-04T04:58:26.773Z,-1.82
2017-12-04T04:59:36.758Z,-1.78
2017-12-04T05:00:46.482Z,-1.9
2017-12-04T05:01:56.199Z,-1.87
2017-12-04T05:03:05.917Z,-1.99
2017-12-04T05:04:15.903Z,-2.13
2017-12-04T05:05:25.623Z,-2.22
2017-12-04T05:06:35.618Z,-2.26
2017-12-04T05:07:45.601Z,-2.36
2017-12-04T05:08:55.580Z,-2.32
2017-12-04T05:10:05.563Z,-2.28
2017-12-04T05:11:15.541Z,-2.36
2017-12-04T05:12:25.541Z,-2.48
2017-12-04T05:13:35.261Z,-2.44
2017-12-04T05:14:44.977Z,-2.42
2017-12-04T05:15:54.697Z,-2.54
2017-12-04T05:17:04.679Z,-2.47
2017-12-04T05:18:14.135Z,-2.45
2017-12-04T05:19:24.120Z,-2.51
2017-12-04T05:20:34.107Z,-2.48
2017-12-04T05:21:44.095Z,-2.61
2017-12-04T05:22:54.081Z,-2.57
2017-12-04T05:24:04.063Z,-2.52
2017-12-04T05:25:14.048Z,-2.54
2017-12-04T05:26:24.028Z,-2.55
2017-12-04T05:27:34.012Z,-2.63
2017-12-04T05:28:43.995Z,-2.63
2017-12-04T05:29:53.974Z,-2.55
2017-12-04T05:31:03.955Z,-2.39
2017-12-04T05:32:13.677Z,-2.4
2017-12-04T05:33:23.407Z,-2.25
2017-12-04T05:34:33.407Z,-2.18
2017-12-04T05:35:42.888Z,-2.1
2017-12-04T05:36:52.868Z,-2.02
2017-12-04T05:38:02.585Z,-1.76
2017-12-04T05:39:12.303Z,-1.69
2017-12-04T05:40:22.280Z,-1.71
2017-12-04T05:41:31.994Z,-1.54
2017-12-04T05:42:41.714Z,-1.54
2017-12-04T05:43:51.695Z,-1.42
2017-12-04T05:45:01.675Z,-1.39
2017-12-04T05:46:11.392Z,-1.46
2017-12-04T05:47:21.384Z,-1.35
2017-12-04T05:48:31.106Z,-1.25
2017-12-04T05:49:41.087Z,-1.33
2017-12-04T05:50:51.070Z,-1.21
2017-12-04T05:52:01.052Z,-1.22
2017-12-04T05:53:10.777Z,-1.22
2017-12-04T05:54:24.620Z,-1.18
2017-12-04T05:55:34.601Z,-1.17
2017-12-04T05:56:44.583Z,-1.19
2017-12-04T05:57:54.300Z,-1.14
2017-12-04T05:59:04.025Z,-1.17
2017-12-04T06:00:14.006Z,-1.36
2017-12-04T06:01:24.043Z,-1.43
2017-12-04T06:02:34.024Z,-1.46
2017-12-04T06:03:43.737Z,-1.57
2017-12-04T06:04:53.720Z,-1.57
2017-12-04T06:06:03.218Z,-1.54
2017-12-04T06:07:13.199Z,-1.48
2017-12-04T06:08:23.177Z,-1.53
2017-12-04T06:09:33.156Z,-1.68
2017-12-04T06:10:43.146Z,-1.68
2017-12-04T06:11:53.125Z,-1.66
2017-12-04T06:13:03.112Z,-1.63
2017-12-04T06:14:12.567Z,-1.81
2017-12-04T06:15:22.548Z,-1.72
2017-12-04T06:16:32.532Z,-1.72
2017-12-04T06:17:42.252Z,-1.68
2017-12-04T06:18:52.235Z,-1.51
2017-12-04T06:20:01.950Z,-1.43
2017-12-04T06:21:11.666Z,-1.5
2017-12-04T06:22:21.655Z,-1.27
2017-12-04T06:23:31.639Z,-1.4
2017-12-04T06:24:41.619Z,-1.32
2017-12-04T06:25:51.333Z,-1.4
2017-12-04T06:27:01.312Z,-1.43
2017-12-04T06:28:10.765Z,-1.38
2017-12-04T06:29:20.751Z,-1.46
2017-12-04T06:30:30.481Z,-1.57
2017-12-04T06:31:40.473Z,-1.66
2017-12-04T06:32:50.461Z,-1.66
2017-12-04T06:34:00.178Z,-1.66
2017-12-04T06:35:11.907Z,-1.75
2017-12-04T06:36:21.354Z,-1.82
2017-12-04T06:37:31.069Z,-1.87
2017-12-04T06:38:41.065Z,-1.84
2017-12-04T06:39:50.853Z,-1.86
2017-12-04T06:41:00.832Z,-1.96
2017-12-04T06:42:10.561Z,-1.9
2017-12-04T06:43:20.544Z,-1.87
2017-12-04T06:44:30.526Z,-2.05
2017-12-04T06:45:39.975Z,-1.96
2017-12-04T06:46:49.952Z,-2.08
2017-12-04T06:47:59.941Z,-2.2
2017-12-04T06:49:09.660Z,-2.25
2017-12-04T06:50:19.648Z,-2.22
2017-12-04T06:51:28.832Z,-2.36
2017-12-04T06:52:38.812Z,-2.36
2017-12-04T06:53:48.807Z,-2.48
2017-12-04T06:54:58.814Z,-2.4
2017-12-04T06:56:08.531Z,-2.44
2017-12-04T06:57:18.517Z,-2.54
2017-12-04T06:58:28.233Z,-2.68
2017-12-04T06:59:38.218Z,-2.68
2017-12-04T07:00:47.977Z,-2.76
2017-12-04T07:01:57.965Z,-2.72
2017-12-04T07:03:07.950Z,-2.89
2017-12-04T07:04:17.955Z,-2.91
2017-12-04T07:05:27.947Z,-3.02
2017-12-04T07:06:37.935Z,-2.99
2017-12-04T07:07:47.941Z,-3.09
2017-12-04T07:08:57.917Z,-3.12
2017-12-04T07:10:07.385Z,-3.15
2017-12-04T07:11:17.382Z,-3.19
2017-12-04T07:12:27.363Z,-3.23
2017-12-04T07:13:37.080Z,-3.23
2017-12-04T07:14:47.071Z,-3.32
2017-12-04T07:15:57.187Z,-3.38
2017-12-04T07:17:07.172Z,-3.26
2017-12-04T07:18:17.165Z,-3.38
2017-12-04T07:19:27.147Z,-3.4
2017-12-04T07:20:37.124Z,-3.46
2017-12-04T07:21:47.097Z,-3.48
2017-12-04T07:22:57.081Z,-3.51
2017-12-04T07:24:07.077Z,-3.61
2017-12-04T07:25:16.794Z,-3.62
2017-12-04T07:26:26.777Z,-3.62
2017-12-04T07:27:36.752Z,-3.69
2017-12-04T07:28:46.466Z,-3.74
2017-12-04T07:29:56.499Z,-3.47
2017-12-04T07:31:06.217Z,-3.17
2017-12-04T07:32:16.211Z,-3.17
2017-12-04T07:33:25.661Z,-2.98
2017-12-04T07:34:35.646Z,-2.89
2017-12-04T07:35:45.626Z,-2.72
2017-12-04T07:36:55.609Z,-2.7
2017-12-04T07:38:05.646Z,-2.66
2017-12-04T07:39:15.367Z,-2.63
2017-12-04T07:40:25.090Z,-2.51
2017-12-04T07:41:34.805Z,-2.37
2017-12-04T07:42:44.784Z,-2.44
2017-12-04T07:43:54.762Z,-2.39
2017-12-04T07:45:04.744Z,-2.39
2017-12-04T07:46:14.465Z,-2.32
2017-12-04T07:47:24.443Z,-2.26
2017-12-04T07:48:34.165Z,-2.26
2017-12-04T07:49:44.144Z,-2.17
2017-12-04T07:50:53.862Z,-2.15
2017-12-04T07:52:03.842Z,-2.18
2017-12-04T07:53:13.879Z,-2.15
2017-12-04T07:54:23.866Z,-2.11
2017-12-04T07:55:33.857Z,-2.13
2017-12-04T07:56:43.851Z,-2.1
2017-12-04T07:57:53.838Z,-1.99
2017-12-04T07:59:03.824Z,-2.07
2017-12-04T08:00:13.540Z,-2.04
2017-12-04T08:01:23.253Z,-2.1
2017-12-04T08:02:32.974Z,-1.97
2017-12-04T08:03:42.951Z,-2.11
2017-12-04T08:04:52.983Z,-2.26
2017-12-04T08:06:02.696Z,-2.18
2017-12-04T08:07:12.675Z,-2.37
2017-12-04T08:08:22.660Z,-2.32
2017-12-04T08:09:32.376Z,-2.47
2017-12-04T08:10:42.099Z,-2.5
2017-12-04T08:11:52.136Z,-2.51
2017-12-04T08:13:02.170Z,-2.58
2017-12-04T08:14:12.152Z,-2.62
2017-12-04T08:15:22.138Z,-2.69
2017-12-04T08:16:32.114Z,-2.69
2017-12-04T08:17:42.095Z,-2.72
2017-12-04T08:18:52.076Z,-2.63
2017-12-04T08:20:02.062Z,-2.57
2017-12-04T08:21:12.055Z,-2.55
2017-12-04T08:22:22.038Z,-2.52
2017-12-04T08:23:31.758Z,-2.36
2017-12-04T08:24:41.748Z,-2.44
2017-12-04T08:25:51.470Z,-2.47
2017-12-04T08:27:01.186Z,-2.33
2017-12-04T08:28:10.899Z,-2.36
2017-12-04T08:29:20.881Z,-2.33
2017-12-04T08:30:30.863Z,-2.32
2017-12-04T08:31:40.852Z,-2.22
2017-12-04T08:32:50.850Z,-2.33
2017-12-04T08:34:00.565Z,-2.33
2017-12-04T08:35:10.552Z,-2.32
2017-12-04T08:36:20.534Z,-2.18
2017-12-04T08:37:30.514Z,-2.25
2017-12-04T08:38:40.501Z,-2.18
2017-12-04T08:39:50.220Z,-2.13
2017-12-04T08:41:00.196Z,-2.22
2017-12-04T08:42:10.176Z,-2.26
2017-12-04T08:43:20.207Z,-2.18
2017-12-04T08:44:30.190Z,-2.25
2017-12-04T08:45:39.930Z,-2.15
2017-12-04T08:46:49.909Z,-2.13
2017-12-04T08:47:59.900Z,-2.18
2017-12-04T08:49:09.613Z,-2.13
2017-12-04T08:50:19.651Z,-2.14
2017-12-04T08:51:29.633Z,-2.15
2017-12-04T08:52:39.622Z,-2.14
2017-12-04T08:53:49.342Z,-2.13
2017-12-04T08:54:59.056Z,-2.14
2017-12-04T08:56:08.771Z,-2.13
2017-12-04T08:57:18.758Z,-2.15
2017-12-04T08:58:28.745Z,-2.1
2017-12-04T08:59:38.468Z,-2.14
2017-12-04T09:00:48.456Z,-2.11
2017-12-04T09:01:58.433Z,-2.2
2017-12-04T09:03:08.418Z,-2.13
2017-12-04T09:04:17.909Z,-2.22
2017-12-04T09:05:27.896Z,-2.22
2017-12-04T09:06:37.616Z,-2.23
2017-12-04T09:07:47.600Z,-2.1
2017-12-04T09:08:57.578Z,-2.08
2017-12-04T09:10:07.307Z,-2.15
2017-12-04T09:11:17.023Z,-2.23
2017-12-04T09:12:26.739Z,-2.26
2017-12-04T09:13:36.725Z,-2.22
2017-12-04T09:14:46.447Z,-2.34
2017-12-04T09:15:55.894Z,-2.29
2017-12-04T09:17:05.606Z,-2.29
2017-12-04T09:18:15.644Z,-2.34
2017-12-04T09:19:25.355Z,-2.45
2017-12-04T09:20:35.340Z,-2.51
2017-12-04T09:21:45.057Z,-2.55
2017-12-04T09:22:54.769Z,-2.66
2017-12-04T09:24:04.748Z,-2.66
2017-12-04T09:25:14.470Z,-2.72
2017-12-04T09:26:24.452Z,-2.75
2017-12-04T09:27:34.434Z,-2.75
2017-12-04T09:28:44.416Z,-2.68
2017-12-04T09:29:54.393Z,-2.75
2017-12-04T09:31:04.370Z,-2.65
2017-12-04T09:32:13.821Z,-2.58
2017-12-04T09:33:23.812Z,-2.58
2017-12-04T09:34:33.806Z,-2.55
2017-12-04T09:35:43.522Z,-2.57
2017-12-04T09:36:53.256Z,-2.45
2017-12-04T09:38:03.254Z,-2.39
2017-12-04T09:39:12.705Z,-2.4
2017-12-04T09:40:22.732Z,-2.37
2017-12-04T09:41:32.442Z,-2.23
2017-12-04T09:42:42.468Z,-2.25
2017-12-04T09:43:52.463Z,-2.17
2017-12-04T09:45:02.446Z,-2.17
2017-12-04T09:46:12.426Z,-2
2017-12-04T09:47:22.440Z,-2.05
2017-12-04T09:48:32.422Z,-1.93
2017-12-04T09:49:42.405Z,-2
2017-12-04T09:50:52.121Z,-1.9
2017-12-04T09:52:02.101Z,-1.87
2017-12-04T09:53:12.385Z,-1.75
2017-12-04T09:54:22.100Z,-1.79
2017-12-04T09:55:32.086Z,-1.66
2017-12-04T09:56:41.803Z,-1.63
2017-12-04T09:57:51.785Z,-1.63
2017-12-04T09:59:01.764Z,-1.74
2017-12-04T10:00:11.492Z,-1.72
2017-12-04T10:01:21.473Z,-1.63
2017-12-04T10:02:31.460Z,-1.6
2017-12-04T10:03:41.443Z,-1.51
2017-12-04T10:04:51.422Z,-1.43
2017-12-04T10:06:01.485Z,-1.4
2017-12-04T10:07:11.466Z,-1.42
2017-12-04T10:08:21.184Z,-1.36
2017-12-04T10:09:31.164Z,-1.38
2017-12-04T10:10:41.143Z,-1.22
2017-12-04T10:11:51.188Z,-1.24
2017-12-04T10:13:00.639Z,-1
2017-12-04T10:14:09.822Z,-0.99
2017-12-04T10:15:19.806Z,-0.84
2017-12-04T10:16:29.788Z,-0.8
2017-12-04T10:17:39.507Z,-0.74
2017-12-04T10:18:49.490Z,-0.75
2017-12-04T10:19:59.468Z,-0.74
2017-12-04T10:21:09.449Z,-0.74
2017-12-04T10:22:19.436Z,-0.67
2017-12-04T10:23:29.152Z,-0.63
2017-12-04T10:24:39.134Z,-0.63
2017-12-04T10:25:49.119Z,-0.63
2017-12-04T10:26:58.833Z,-0.67
2017-12-04T10:28:08.555Z,-0.56
2017-12-04T10:29:18.274Z,-0.35
2017-12-04T10:30:27.990Z,-0.35
2017-12-04T10:31:37.980Z,-0.18
2017-12-04T10:32:47.732Z,-0.12
2017-12-04T10:33:57.720Z,0.12
2017-12-04T10:35:07.444Z,0.06
2017-12-04T10:36:17.167Z,0.18
2017-12-04T10:37:27.164Z,0.3
2017-12-04T10:38:36.612Z,0.44
2017-12-04T10:39:46.597Z,0.47
2017-12-04T10:40:56.582Z,0.63
2017-12-04T10:42:06.303Z,0.61
2017-12-04T10:43:16.293Z,0.55
2017-12-04T10:44:26.015Z,0.64
2017-12-04T10:45:35.999Z,0.68
2017-12-04T10:46:45.720Z,0.82
2017-12-04T10:47:55.714Z,1.09
2017-12-04T10:49:05.831Z,1.1
2017-12-04T10:50:15.824Z,1.18
2017-12-04T10:51:25.810Z,1.22
2017-12-04T10:52:35.799Z,1.32
2017-12-04T10:53:45.798Z,1.49
2017-12-04T10:54:55.787Z,1.53
2017-12-04T10:56:05.507Z,1.61
2017-12-04T10:57:15.505Z,1.6
2017-12-04T10:58:25.490Z,1.61
2017-12-04T10:59:35.485Z,1.63
2017-12-04T11:00:44.952Z,1.6
2017-12-04T11:01:54.410Z,1.56
2017-12-04T11:03:04.406Z,1.57
2017-12-04T11:04:13.875Z,1.6
2017-12-04T11:05:23.866Z,1.74
2017-12-04T11:06:33.851Z,1.82
2017-12-04T11:07:43.837Z,2.01
2017-12-04T11:08:53.563Z,2
2017-12-04T11:10:03.285Z,2.19
2017-12-04T11:11:12.741Z,2.43
2017-12-04T11:12:22.745Z,2.5
2017-12-04T11:13:32.737Z,2.54
2017-12-04T11:14:42.457Z,2.52
2017-12-04T11:15:51.918Z,2.41
2017-12-04T11:17:01.914Z,2.37
2017-12-04T11:18:11.904Z,2.39
2017-12-04T11:19:21.896Z,2.33
2017-12-04T11:20:31.624Z,2.5
2017-12-04T11:21:41.610Z,2.57
2017-12-04T11:22:51.601Z,2.61
2017-12-04T11:24:01.327Z,2.58
2017-12-04T11:25:11.322Z,2.62
2017-12-04T11:26:21.322Z,2.72
2017-12-04T11:27:31.311Z,2.77
2017-12-04T11:28:41.297Z,2.87
2017-12-04T11:29:51.285Z,2.87
2017-12-04T11:31:01.274Z,2.88
2017-12-04T11:32:10.995Z,2.94
2017-12-04T11:33:20.724Z,2.88
2017-12-04T11:34:30.709Z,3
2017-12-04T11:35:40.429Z,3.11
2017-12-04T11:36:50.420Z,3.15
2017-12-04T11:38:00.414Z,3.34
2017-12-04T11:39:10.405Z,3.48
2017-12-04T11:40:20.406Z,3.43
2017-12-04T11:41:30.132Z,3.55
2017-12-04T11:42:40.139Z,3.5
2017-12-04T11:43:49.862Z,3.55
2017-12-04T11:44:59.955Z,3.5
2017-12-04T11:46:10.016Z,3.48
2017-12-04T11:47:20.447Z,3.34
2017-12-04T11:48:30.204Z,3.19
2017-12-04T11:49:40.196Z,3.15
2017-12-04T11:50:49.922Z,2.94
2017-12-04T11:51:59.926Z,2.62
2017-12-04T11:53:09.910Z,2.4
2017-12-04T11:54:19.633Z,2.18
2017-12-04T11:55:29.632Z,2.01
2017-12-04T11:56:39.625Z,1.85
2017-12-04T11:57:49.616Z,1.71
2017-12-04T11:58:59.602Z,1.5
2017-12-04T12:00:09.588Z,1.4
2017-12-04T12:01:19.573Z,1.18
2017-12-04T12:02:29.568Z,1.2
2017-12-04T12:03:39.288Z,1.1
2017-12-04T12:04:49.300Z,0.96
2017-12-04T12:05:59.295Z,0.89
2017-12-04T12:07:09.282Z,0.77
2017-12-04T12:08:19.273Z,0.71
2017-12-04T12:09:29.267Z,0.66
2017-12-04T12:10:38.981Z,0.61
2017-12-04T12:11:48.706Z,0.55
2017-12-04T12:12:58.689Z,0.47
2017-12-04T12:14:08.410Z,0.47
2017-12-04T12:15:18.131Z,0.51
2017-12-04T12:16:28.113Z,0.37
2017-12-04T12:17:38.149Z,0.36
2017-12-04T12:18:47.870Z,0.34
2017-12-04T12:19:57.605Z,0.31
2017-12-04T12:21:07.591Z,0.24
2017-12-04T12:22:17.580Z,0.23
2017-12-04T12:23:27.298Z,0.26
2017-12-04T12:24:37.284Z,0.15
2017-12-04T12:25:46.999Z,0.13
2017-12-04T12:26:56.720Z,0.13
2017-12-04T12:28:06.699Z,0.2
2017-12-04T12:29:16.419Z,0.12
2017-12-04T12:30:26.137Z,0.05
2017-12-04T12:31:36.127Z,0.05
2017-12-04T12:32:45.863Z,0.06
2017-12-04T12:33:55.329Z,0
2017-12-04T12:35:04.779Z,-0.03
2017-12-04T12:36:14.765Z,-0.05
2017-12-04T12:37:24.747Z,-0.05
2017-12-04T12:38:34.743Z,-0.15
2017-12-04T12:39:44.732Z,-0.06
2017-12-04T12:40:54.725Z,-0.09
2017-12-04T12:42:04.714Z,0.05
2017-12-04T12:43:14.704Z,-0.02
2017-12-04T12:44:24.692Z,0.06
2017-12-04T12:45:34.693Z,0
2017-12-04T12:46:44.685Z,-0.02
2017-12-04T12:47:57.221Z,0.11
2017-12-04T12:49:07.207Z,0.02
2017-12-04T12:50:17.191Z,0.01
2017-12-04T12:51:26.919Z,0
2017-12-04T12:52:36.908Z,0.01
2017-12-04T12:53:46.624Z,-0.02
2017-12-04T12:54:56.340Z,0.09
2017-12-04T12:56:05.794Z,0.02
2017-12-04T12:57:15.886Z,0.05
2017-12-04T12:58:25.878Z,0.08
2017-12-04T12:59:35.914Z,0.15
2017-12-04T13:00:45.906Z,0.12
2017-12-04T13:01:55.891Z,0
2017-12-04T13:03:05.886Z,0.12
2017-12-04T13:04:15.607Z,0.01
2017-12-04T13:05:25.594Z,0.01
2017-12-04T13:06:35.580Z,0.08
2017-12-04T13:07:45.579Z,0.06
2017-12-04T13:08:55.562Z,0.08
2017-12-04T13:10:05.015Z,0
2017-12-04T13:11:14.735Z,0.11
2017-12-04T13:12:24.720Z,0.13
2017-12-04T13:13:34.701Z,0.05
2017-12-04T13:14:44.424Z,-0.03
2017-12-04T13:15:54.405Z,0.05
2017-12-04T13:17:04.124Z,-0.09
2017-12-04T13:18:13.848Z,-0.02
2017-12-04T13:19:23.841Z,-0.03
2017-12-04T13:20:33.910Z,-0.09
2017-12-04T13:21:43.903Z,-0.03
2017-12-04T13:22:53.360Z,-0.13
2017-12-04T13:24:03.341Z,-0.2
2017-12-04T13:25:13.338Z,-0.2
2017-12-04T13:26:23.128Z,-0.3
2017-12-04T13:27:33.120Z,-0.3
2017-12-04T13:28:42.834Z,-0.33
2017-12-04T13:29:52.552Z,-0.35
2017-12-04T13:31:02.534Z,-0.39
2017-12-04T13:32:12.516Z,-0.35
2017-12-04T13:33:22.503Z,-0.38
2017-12-04T13:34:32.487Z,-0.49
2017-12-04T13:35:42.471Z,-0.51
2017-12-04T13:36:52.457Z,-0.53
2017-12-04T13:38:02.180Z,-0.51
2017-12-04T13:39:12.196Z,-0.59
2017-12-04T13:40:22.179Z,-0.57
2017-12-04T13:41:31.630Z,-0.64
2017-12-04T13:42:41.660Z,-0.56
2017-12-04T13:43:51.664Z,-0.62
2017-12-04T13:45:01.649Z,-0.54
2017-12-04T13:46:11.635Z,-0.54
2017-12-04T13:47:21.621Z,-0.54
2017-12-04T13:48:31.609Z,-0.59
2017-12-04T13:49:41.605Z,-0.6
2017-12-04T13:50:51.324Z,-0.63
2017-12-04T13:52:01.306Z,-0.59
2017-12-04T13:53:11.292Z,-0.53
2017-12-04T13:54:21.273Z,-0.59
2017-12-04T13:55:30.990Z,-0.57
2017-12-04T13:56:40.440Z,-0.59
2017-12-04T13:57:50.422Z,-0.66
2017-12-04T13:59:00.404Z,-0.56
2017-12-04T14:00:10.125Z,-0.57
2017-12-04T14:01:20.121Z,-0.56
2017-12-04T14:02:29.847Z,-0.63
2017-12-04T14:03:39.838Z,-0.6
2017-12-04T14:04:49.556Z,-0.59
2017-12-04T14:05:59.277Z,-0.57
2017-12-04T14:07:08.725Z,-0.62
2017-12-04T14:08:18.710Z,-0.6
2017-12-04T14:09:28.695Z,-0.62
2017-12-04T14:10:38.416Z,-0.59
2017-12-04T14:11:48.408Z,-0.67
2017-12-04T14:12:58.126Z,-0.66
2017-12-04T14:14:08.106Z,-0.7
2017-12-04T14:15:18.093Z,-0.75
2017-12-04T14:16:27.811Z,-0.84
2017-12-04T14:17:37.792Z,-0.93
2017-12-04T14:18:47.776Z,-0.97
2017-12-04T14:19:57.225Z,-0.93
2017-12-04T14:21:07.000Z,-1.09
2017-12-04T14:22:16.998Z,-1.12
2017-12-04T14:23:26.978Z,-1.17
2017-12-04T14:24:36.430Z,-1.17
2017-12-04T14:25:46.423Z,-1.21
2017-12-04T14:26:56.400Z,-1.27
2017-12-04T14:28:06.389Z,-1.45
2017-12-04T14:29:16.374Z,-1.42
2017-12-04T14:30:26.095Z,-1.48
2017-12-04T14:31:36.075Z,-1.53
2017-12-04T14:32:47.128Z,-1.61
2017-12-04T14:33:56.897Z,-1.63
2017-12-04T14:35:06.887Z,-1.74
2017-12-04T14:36:16.867Z,-1.72
2017-12-04T14:37:26.579Z,-1.71
2017-12-04T14:38:36.817Z,-1.82
2017-12-04T14:39:46.805Z,-1.78
2017-12-04T14:40:56.523Z,-1.72
2017-12-04T14:42:06.508Z,-1.72
2017-12-04T14:43:15.999Z,-1.79
2017-12-04T14:44:27.984Z,-1.72
2017-12-04T14:45:37.432Z,-1.68
2017-12-04T14:46:47.412Z,-1.71
2017-12-04T14:47:57.131Z,-1.79
2017-12-04T14:49:06.856Z,-1.75
2017-12-04T14:50:16.871Z,-1.76
2017-12-04T14:51:26.852Z,-1.75
2017-12-04T14:52:36.832Z,-1.76
2017-12-04T14:53:46.545Z,-1.76
2017-12-04T14:54:56.524Z,-1.79
2017-12-04T14:56:06.509Z,-1.72
2017-12-04T14:57:16.489Z,-1.86
2017-12-04T14:58:26.471Z,-1.86
2017-12-04T14:59:36.449Z,-1.87
2017-12-04T15:00:46.431Z,-1.79
2017-12-04T15:01:56.211Z,-1.82
2017-12-04T15:03:05.927Z,-1.71
2017-12-04T15:04:15.650Z,-1.71
2017-12-04T15:05:25.640Z,-1.68
2017-12-04T15:06:35.618Z,-1.64
2017-12-04T15:07:45.353Z,-1.6
2017-12-04T15:08:55.337Z,-1.69
2017-12-04T15:10:05.057Z,-1.5
2017-12-04T15:11:15.039Z,-1.56
2017-12-04T15:12:24.489Z,-1.42
2017-12-04T15:13:34.467Z,-1.42